
Distance (Route):
Temperature : 21.0°C
Humidity : 50.4%
Pressure : 0hPa| Receiver | Frames | First received | Last received |
|---|---|---|---|
| LZ4TU-5 | 163 | 2026-09-01 23:18:45 | 2026-09-02 01:00:52 |
| Receiver | Date | Latitude | Longitude | Direction | Speed | Altitude | Climb | Temperature | Humidity | Pressure | Voltage | Killtimer | Uptime | BKT | XDATA |
|---|---|---|---|---|---|---|---|---|---|---|---|---|---|---|---|
| LZ4TU-5 | 2026-09-02 01:00:52 | 44.21779 | 23.50519 | 0° | 0km/h | 1012m | -12.6m/s | 21.0°C | 50.4% | 0hPa | 0V | 00:00:00 | 00:00:00 | 00:00:00 | |
| LZ4TU-5 | 2026-09-02 01:00:48 | 44.21778 | 23.50516 | 73° | 4km/h | 1075m | -12.2m/s | 20.5°C | 51.5% | 0hPa | 0V | 00:00:00 | 00:00:00 | 00:00:00 | |
| LZ4TU-5 | 2026-09-02 01:00:43 | 44.21773 | 23.50508 | 51° | 9km/h | 1126m | -12.8m/s | 20.1°C | 52.5% | 0hPa | 0V | 00:00:00 | 00:00:00 | 00:00:00 | |
| LZ4TU-5 | 2026-09-02 01:00:38 | 44.21765 | 23.50488 | 73° | 15km/h | 1190m | -12.6m/s | 19.6°C | 52.1% | 0hPa | 0V | 00:00:00 | 00:00:00 | 00:00:00 | |
| LZ4TU-5 | 2026-09-02 01:00:33 | 44.21763 | 23.50458 | 94° | 18km/h | 1254m | -12.8m/s | 19.2°C | 49.0% | 0hPa | 0V | 00:00:00 | 00:00:00 | 00:00:00 | |
| LZ4TU-5 | 2026-09-02 01:00:29 | 44.21766 | 23.50435 | 109° | 16km/h | 1306m | -13.1m/s | 18.9°C | 50.7% | 0hPa | 0V | 00:00:00 | 00:00:00 | 00:00:00 | |
| LZ4TU-5 | 2026-09-02 01:00:24 | 44.21772 | 23.50406 | 104° | 16km/h | 1373m | -13.7m/s | 18.3°C | 52.0% | 0hPa | 0V | 00:00:00 | 00:00:00 | 00:00:00 | |
| LZ4TU-5 | 2026-09-02 01:00:19 | 44.21776 | 23.50378 | 101° | 16km/h | 1437m | -12.5m/s | 17.8°C | 52.0% | 0hPa | 0V | 00:00:00 | 00:00:00 | 00:00:00 | |
| LZ4TU-5 | 2026-09-02 01:00:16 | 44.21779 | 23.50358 | 103° | 13km/h | 1488m | -13.0m/s | 17.4°C | 54.0% | 0hPa | 0V | 00:00:00 | 00:00:00 | 00:00:00 | |
| LZ4TU-5 | 2026-09-02 01:00:10 | 44.21781 | 23.50336 | 85° | 13km/h | 1554m | -13.4m/s | 16.9°C | 53.2% | 0hPa | 0V | 00:00:00 | 00:00:00 | 00:00:00 | |
| LZ4TU-5 | 2026-09-02 01:00:05 | 44.21780 | 23.50314 | 88° | 13km/h | 1621m | -13.2m/s | 16.3°C | 52.2% | 0hPa | 0V | 00:00:00 | 00:00:00 | 00:00:00 | |
| LZ4TU-5 | 2026-09-02 00:58:16 | 44.21854 | 23.49593 | 111° | 22km/h | 3089m | -13.5m/s | 4.4°C | 71.5% | 0hPa | 0V | 00:00:00 | 00:00:00 | 00:00:00 | |
| LZ4TU-5 | 2026-09-02 00:58:11 | 44.21863 | 23.49558 | 109° | 20km/h | 3157m | -13.6m/s | 4.0°C | 64.3% | 0hPa | 0V | 00:00:00 | 00:00:00 | 00:00:00 | |
| LZ4TU-5 | 2026-09-02 00:58:05 | 44.21870 | 23.49519 | 99° | 18km/h | 3239m | -13.6m/s | 3.6°C | 53.5% | 0hPa | 0V | 00:00:00 | 00:00:00 | 00:00:00 | |
| LZ4TU-5 | 2026-09-02 00:55:52 | 44.22327 | 23.47606 | 104° | 49km/h | 5138m | -14.7m/s | -5.3°C | 7.4% | 0hPa | 0V | 00:00:00 | 00:00:00 | 00:00:00 | |
| LZ4TU-5 | 2026-09-02 00:55:43 | 44.22354 | 23.47445 | 105° | 55km/h | 5270m | -15.2m/s | -6.3°C | 7.0% | 0hPa | 0V | 00:00:00 | 00:00:00 | 00:00:00 | |
| LZ4TU-5 | 2026-09-02 00:55:34 | 44.22392 | 23.47285 | 108° | 51km/h | 5403m | -14.9m/s | -7.3°C | 6.1% | 0hPa | 0V | 00:00:00 | 00:00:00 | 00:00:00 | |
| LZ4TU-5 | 2026-09-02 00:55:30 | 44.22404 | 23.47218 | 101° | 47km/h | 5461m | -14.0m/s | -7.5°C | 0% | 0hPa | 0V | 00:00:00 | 00:00:00 | 00:00:00 | |
| LZ4TU-5 | 2026-09-02 00:53:46 | 44.22698 | 23.45148 | 102° | 60km/h | 6922m | -14.4m/s | -18.2°C | 22.9% | 0hPa | 0V | 00:00:00 | 00:00:00 | 00:00:00 | |
| LZ4TU-5 | 2026-09-02 00:53:41 | 44.22712 | 23.45043 | 104° | 58km/h | 6997m | -14.7m/s | -18.8°C | 21.9% | 0hPa | 0V | 00:00:00 | 00:00:00 | 00:00:00 | |
| LZ4TU-5 | 2026-09-02 00:51:18 | 44.23026 | 23.41737 | 98° | 68km/h | 9164m | -16.4m/s | -33.5°C | 6.0% | 0hPa | 0V | 00:00:00 | 00:00:00 | 00:00:00 | |
| LZ4TU-5 | 2026-09-02 00:51:13 | 44.23037 | 23.41617 | 99° | 68km/h | 9243m | -16.3m/s | -34.2°C | 6.5% | 0hPa | 0V | 00:00:00 | 00:00:00 | 00:00:00 | |
| LZ4TU-5 | 2026-09-02 00:49:24 | 44.23228 | 23.38179 | 93° | 108km/h | 11094m | -17.7m/s | -48.3°C | 18.1% | 0hPa | 0V | 00:00:00 | 00:00:00 | 00:00:00 | |
| LZ4TU-5 | 2026-09-02 00:49:19 | 44.23234 | 23.37986 | 93° | 113km/h | 11184m | -18.5m/s | -49.0°C | 18.0% | 0hPa | 0V | 00:00:00 | 00:00:00 | 00:00:00 | |
| LZ4TU-5 | 2026-09-02 00:49:14 | 44.23242 | 23.37782 | 93° | 119km/h | 11278m | -19.0m/s | -49.4°C | 17.6% | 0hPa | 0V | 00:00:00 | 00:00:00 | 00:00:00 | |
| LZ4TU-5 | 2026-09-02 00:49:10 | 44.23245 | 23.37612 | 92° | 122km/h | 11353m | -18.7m/s | -49.8°C | 17.5% | 0hPa | 0V | 00:00:00 | 00:00:00 | 00:00:00 | |
| LZ4TU-5 | 2026-09-02 00:49:05 | 44.23245 | 23.37349 | 90° | 126km/h | 11468m | -18.9m/s | -50.2°C | 17.0% | 0hPa | 0V | 00:00:00 | 00:00:00 | 00:00:00 | |
| LZ4TU-5 | 2026-09-02 00:45:43 | 44.22751 | 23.29791 | 79° | 51km/h | 16026m | -28.7m/s | -59.7°C | 0.0% | 0hPa | 0V | 00:00:00 | 00:00:00 | 00:00:00 | |
| LZ4TU-5 | 2026-09-02 00:45:39 | 44.22742 | 23.29723 | 83° | 49km/h | 16142m | -26.0m/s | -60.0°C | 0.0% | 0hPa | 0V | 00:00:00 | 00:00:00 | 00:00:00 | |
| LZ4TU-5 | 2026-09-02 00:45:34 | 44.22731 | 23.29646 | 77° | 38km/h | 16272m | -26.3m/s | -59.8°C | 0.0% | 0hPa | 0V | 00:00:00 | 00:00:00 | 00:00:00 | |
| LZ4TU-5 | 2026-09-02 00:45:25 | 44.22721 | 23.29518 | 89° | 46km/h | 16507m | -25.7m/s | -60.1°C | 0% | 0hPa | 0V | 00:00:00 | 00:00:00 | 00:00:00 | |
| LZ4TU-5 | 2026-09-02 00:39:06 | 44.22525 | 23.27780 | 0° | 0km/h | 31140m | 0.0m/s | -43.6°C | 0.0% | 0hPa | 0V | 00:00:00 | 00:00:00 | 00:00:00 | |
| LZ4TU-5 | 2026-09-02 00:39:01 | 44.22522 | 23.27804 | 0° | 0km/h | 31102m | 0.0m/s | -43.5°C | 0.0% | 0hPa | 0V | 00:00:00 | 00:00:00 | 00:00:00 | |
| LZ4TU-5 | 2026-09-02 00:37:29 | 44.22414 | 23.27910 | 25° | 31km/h | 30402m | 6.8m/s | -44.1°C | 0.0% | 0hPa | 0V | 00:00:00 | 00:00:00 | 00:00:00 | |
| LZ4TU-5 | 2026-09-02 00:37:25 | 44.22388 | 23.27896 | 17° | 22km/h | 30373m | 6.7m/s | -44.1°C | 0.0% | 0hPa | 0V | 00:00:00 | 00:00:00 | 00:00:00 | |
| LZ4TU-5 | 2026-09-02 00:37:20 | 44.22363 | 23.27897 | 339° | 15km/h | 30338m | 6.8m/s | -44.1°C | 0.0% | 0hPa | 0V | 00:00:00 | 00:00:00 | 00:00:00 | |
| LZ4TU-5 | 2026-09-02 00:35:22 | 44.22180 | 23.28034 | 154° | 11km/h | 29509m | 7.0m/s | -45.5°C | 0.0% | 0hPa | 0V | 00:00:00 | 00:00:00 | 00:00:00 | |
| LZ4TU-5 | 2026-09-02 00:35:18 | 44.22177 | 23.28020 | 343° | 5km/h | 29470m | 6.8m/s | -45.7°C | 0.0% | 0hPa | 0V | 00:00:00 | 00:00:00 | 00:00:00 | |
| LZ4TU-5 | 2026-09-02 00:33:37 | 44.22005 | 23.28131 | 4° | 22km/h | 28775m | 7.6m/s | -47.4°C | 0.0% | 0hPa | 0V | 00:00:00 | 00:00:00 | 00:00:00 | |
| LZ4TU-5 | 2026-09-02 00:33:31 | 44.21965 | 23.28137 | 17° | 11km/h | 28737m | 6.9m/s | -47.6°C | 0.0% | 0hPa | 0V | 00:00:00 | 00:00:00 | 00:00:00 | |
| LZ4TU-5 | 2026-09-02 00:31:57 | 44.21747 | 23.28261 | 85° | 9km/h | 28073m | 6.8m/s | -47.4°C | 0.0% | 0hPa | 0V | 00:00:00 | 00:00:00 | 00:00:00 | |
| LZ4TU-5 | 2026-09-02 00:31:52 | 44.21736 | 23.28252 | 341° | 15km/h | 28037m | 7.0m/s | -47.2°C | 0.0% | 0hPa | 0V | 00:00:00 | 00:00:00 | 00:00:00 | |
| LZ4TU-5 | 2026-09-02 00:30:22 | 44.21518 | 23.28256 | 48° | 7km/h | 27412m | 7.1m/s | -47.7°C | 0.0% | 0hPa | 0V | 00:00:00 | 00:00:00 | 00:00:00 | |
| LZ4TU-5 | 2026-09-02 00:30:18 | 44.21501 | 23.28265 | 286° | 20km/h | 27375m | 6.6m/s | -47.7°C | 0.0% | 0hPa | 0V | 00:00:00 | 00:00:00 | 00:00:00 | |
| LZ4TU-5 | 2026-09-02 00:28:44 | 44.21473 | 23.27880 | 29° | 18km/h | 26747m | 6.7m/s | -48.7°C | 0.0% | 0hPa | 0V | 00:00:00 | 00:00:00 | 00:00:00 | |
| LZ4TU-5 | 2026-09-02 00:28:39 | 44.21452 | 23.27860 | 41° | 18km/h | 26714m | 7.0m/s | -49.0°C | 0.0% | 0hPa | 0V | 00:00:00 | 00:00:00 | 00:00:00 | |
| LZ4TU-5 | 2026-09-02 00:27:05 | 44.21325 | 23.27997 | 199° | 11km/h | 26078m | 7.0m/s | -49.3°C | 0.0% | 0hPa | 0V | 00:00:00 | 00:00:00 | 00:00:00 | |
| LZ4TU-5 | 2026-09-02 00:27:00 | 44.21349 | 23.28003 | 212° | 11km/h | 26044m | 6.6m/s | -49.3°C | 0.0% | 0hPa | 0V | 00:00:00 | 00:00:00 | 00:00:00 | |
| LZ4TU-5 | 2026-09-02 00:25:14 | 44.21577 | 23.27974 | 218° | 9km/h | 25371m | 7.4m/s | -49.7°C | 0.0% | 0hPa | 0V | 00:00:00 | 00:00:00 | 00:00:00 | |
| LZ4TU-5 | 2026-09-02 00:25:10 | 44.21583 | 23.27973 | 130° | 7km/h | 25348m | 8.0m/s | -49.8°C | 0.0% | 0hPa | 0V | 00:00:00 | 00:00:00 | 00:00:00 | |
| LZ4TU-5 | 2026-09-02 00:23:36 | 44.21401 | 23.27908 | 316° | 13km/h | 24671m | 7.0m/s | -50.7°C | 0% | 0hPa | 0V | 00:00:00 | 00:00:00 | 00:00:00 | |
| LZ4TU-5 | 2026-09-02 00:23:31 | 44.21390 | 23.27938 | 304° | 7km/h | 24635m | 7.1m/s | -50.8°C | 0.0% | 0hPa | 0V | 00:00:00 | 00:00:00 | 00:00:00 | |
| LZ4TU-5 | 2026-09-02 00:21:56 | 44.21618 | 23.27938 | 165° | 5km/h | 24025m | 8.4m/s | -52.7°C | 0.0% | 0hPa | 0V | 00:00:00 | 00:00:00 | 00:00:00 | |
| LZ4TU-5 | 2026-09-02 00:21:52 | 44.21634 | 23.27941 | 172° | 13km/h | 23982m | 7.1m/s | -52.8°C | 0.0% | 0hPa | 0V | 00:00:00 | 00:00:00 | 00:00:00 | |
| LZ4TU-5 | 2026-09-02 00:20:16 | 44.21664 | 23.27855 | 52° | 5km/h | 23351m | 7.6m/s | -53.7°C | 0.0% | 0hPa | 0V | 00:00:00 | 00:00:00 | 00:00:00 | |
| LZ4TU-5 | 2026-09-02 00:20:11 | 44.21661 | 23.27857 | 304° | 15km/h | 23316m | 8.6m/s | -53.6°C | 0.0% | 0hPa | 0V | 00:00:00 | 00:00:00 | 00:00:00 | |
| LZ4TU-5 | 2026-09-02 00:18:35 | 44.21692 | 23.28114 | 182° | 11km/h | 22659m | 4.3m/s | -54.6°C | 0.0% | 0hPa | 0V | 00:00:00 | 00:00:00 | 00:00:00 | |
| LZ4TU-5 | 2026-09-02 00:18:32 | 44.21692 | 23.28102 | 58° | 13km/h | 22634m | 4.7m/s | -54.4°C | 0.0% | 0hPa | 0V | 00:00:00 | 00:00:00 | 00:00:00 | |
| LZ4TU-5 | 2026-09-02 00:16:56 | 44.21818 | 23.28001 | 142° | 24km/h | 22052m | 5.0m/s | -54.6°C | 0.0% | 0hPa | 0V | 00:00:00 | 00:00:00 | 00:00:00 | |
| LZ4TU-5 | 2026-09-02 00:16:51 | 44.21840 | 23.27959 | 149° | 18km/h | 22028m | 6.3m/s | -54.7°C | 0.0% | 0hPa | 0V | 00:00:00 | 00:00:00 | 00:00:00 | |
| LZ4TU-5 | 2026-09-02 00:15:23 | 44.21936 | 23.27284 | 49° | 27km/h | 21423m | 5.5m/s | -55.4°C | 0.0% | 0hPa | 0V | 00:00:00 | 00:00:00 | 00:00:00 | |
| LZ4TU-5 | 2026-09-02 00:15:19 | 44.21916 | 23.27236 | 88° | 22km/h | 21391m | 6.5m/s | -55.7°C | 0.0% | 0hPa | 0V | 00:00:00 | 00:00:00 | 00:00:00 | |
| LZ4TU-5 | 2026-09-02 00:15:10 | 44.21897 | 23.27187 | 19° | 38km/h | 21335m | 4.6m/s | -55.6°C | 0.0% | 0hPa | 0V | 00:00:00 | 00:00:00 | 00:00:00 | |
| LZ4TU-5 | 2026-09-02 00:15:05 | 44.21868 | 23.27158 | 56° | 15km/h | 21308m | 4.8m/s | -55.8°C | 0.0% | 0hPa | 0V | 00:00:00 | 00:00:00 | 00:00:00 | |
| LZ4TU-5 | 2026-09-02 00:13:35 | 44.21323 | 23.26900 | 30° | 26km/h | 20783m | 6.3m/s | -55.2°C | 0.0% | 0hPa | 0V | 00:00:00 | 00:00:00 | 00:00:00 | |
| LZ4TU-5 | 2026-09-02 00:13:31 | 44.21303 | 23.26884 | 32° | 22km/h | 20759m | 6.3m/s | -55.4°C | 0.0% | 0hPa | 0V | 00:00:00 | 00:00:00 | 00:00:00 | |
| LZ4TU-5 | 2026-09-02 00:13:23 | 44.21260 | 23.26855 | 50° | 15km/h | 20708m | 6.9m/s | -55.7°C | 0.0% | 0hPa | 0V | 00:00:00 | 00:00:00 | 00:00:00 | |
| LZ4TU-5 | 2026-09-02 00:13:18 | 44.21253 | 23.26840 | 35° | 16km/h | 20672m | 6.9m/s | -55.7°C | 0% | 0hPa | 0V | 00:00:00 | 00:00:00 | 00:00:00 | |
| LZ4TU-5 | 2026-09-02 00:11:41 | 44.20880 | 23.26482 | 74° | 42km/h | 20074m | 5.9m/s | -56.1°C | 0.0% | 0hPa | 0V | 00:00:00 | 00:00:00 | 00:00:00 | |
| LZ4TU-5 | 2026-09-02 00:11:37 | 44.20862 | 23.26432 | 56° | 27km/h | 20041m | 6.4m/s | -56.3°C | 0.0% | 0hPa | 0V | 00:00:00 | 00:00:00 | 00:00:00 | |
| LZ4TU-5 | 2026-09-02 00:11:31 | 44.20843 | 23.26381 | 72° | 35km/h | 20010m | 5.9m/s | -57.3°C | 0.0% | 0hPa | 0V | 00:00:00 | 00:00:00 | 00:00:00 | |
| LZ4TU-5 | 2026-09-02 00:11:22 | 44.20789 | 23.26322 | 32° | 27km/h | 19958m | 5.8m/s | -57.7°C | 0.0% | 0hPa | 0V | 00:00:00 | 00:00:00 | 00:00:00 | |
| LZ4TU-5 | 2026-09-02 00:09:45 | 44.20774 | 23.25882 | 84° | 29km/h | 19371m | 7.6m/s | -57.4°C | 0.0% | 0hPa | 0V | 00:00:00 | 00:00:00 | 00:00:00 | |
| LZ4TU-5 | 2026-09-02 00:09:41 | 44.20766 | 23.25845 | 97° | 15km/h | 19337m | 6.7m/s | -57.2°C | 0.0% | 0hPa | 0V | 00:00:00 | 00:00:00 | 00:00:00 | |
| LZ4TU-5 | 2026-09-02 00:09:33 | 44.20774 | 23.25795 | 91° | 24km/h | 19268m | 5.1m/s | -56.9°C | 0.0% | 0hPa | 0V | 00:00:00 | 00:00:00 | 00:00:00 | |
| LZ4TU-5 | 2026-09-02 00:09:29 | 44.20777 | 23.25763 | 149° | 15km/h | 19246m | 5.0m/s | -56.8°C | 0.0% | 0hPa | 0V | 00:00:00 | 00:00:00 | 00:00:00 | |
| LZ4TU-5 | 2026-09-02 00:07:56 | 44.20770 | 23.25056 | 27° | 15km/h | 18664m | 8.5m/s | -57.7°C | 0.0% | 0hPa | 0V | 00:00:00 | 00:00:00 | 00:00:00 | |
| LZ4TU-5 | 2026-09-02 00:07:51 | 44.20760 | 23.25036 | 91° | 15km/h | 18632m | 8.2m/s | -57.4°C | 0.0% | 0hPa | 0V | 00:00:00 | 00:00:00 | 00:00:00 | |
| LZ4TU-5 | 2026-09-02 00:07:43 | 44.20732 | 23.25010 | 61° | 15km/h | 18581m | 6.3m/s | -57.0°C | 0.0% | 0hPa | 0V | 00:00:00 | 00:00:00 | 00:00:00 | |
| LZ4TU-5 | 2026-09-02 00:07:38 | 44.20720 | 23.24993 | 26° | 11km/h | 18546m | 8.1m/s | -56.8°C | 0.0% | 0hPa | 0V | 00:00:00 | 00:00:00 | 00:00:00 | |
| LZ4TU-5 | 2026-09-02 00:06:08 | 44.20819 | 23.24331 | 104° | 37km/h | 17951m | 7.5m/s | -56.7°C | 0.0% | 0hPa | 0V | 00:00:00 | 00:00:00 | 00:00:00 | |
| LZ4TU-5 | 2026-09-02 00:06:03 | 44.20817 | 23.24267 | 91° | 38km/h | 17919m | 7.0m/s | -56.6°C | 0.0% | 0hPa | 0V | 00:00:00 | 00:00:00 | 00:00:00 | |
| LZ4TU-5 | 2026-09-02 00:05:54 | 44.20818 | 23.24150 | 74° | 27km/h | 17861m | 5.8m/s | -56.1°C | 0.0% | 0hPa | 0V | 00:00:00 | 00:00:00 | 00:00:00 | |
| LZ4TU-5 | 2026-09-02 00:05:50 | 44.20808 | 23.24102 | 77° | 42km/h | 17836m | 5.1m/s | -56.0°C | 0.0% | 0hPa | 0V | 00:00:00 | 00:00:00 | 00:00:00 | |
| LZ4TU-5 | 2026-09-02 00:04:25 | 44.20712 | 23.22887 | 103° | 57km/h | 17346m | 6.7m/s | -58.5°C | 0.0% | 0hPa | 0V | 00:00:00 | 00:00:00 | 00:00:00 | |
| LZ4TU-5 | 2026-09-02 00:04:21 | 44.20719 | 23.22816 | 102° | 53km/h | 17322m | 5.9m/s | -58.5°C | 0.0% | 0hPa | 0V | 00:00:00 | 00:00:00 | 00:00:00 | |
| LZ4TU-5 | 2026-09-02 00:04:14 | 44.20738 | 23.22651 | 93° | 58km/h | 17277m | 4.2m/s | -58.6°C | 0.0% | 0hPa | 0V | 00:00:00 | 00:00:00 | 00:00:00 | |
| LZ4TU-5 | 2026-09-02 00:04:09 | 44.20748 | 23.22558 | 100° | 57km/h | 17250m | 5.1m/s | -58.9°C | 0.0% | 0hPa | 0V | 00:00:00 | 00:00:00 | 00:00:00 | |
| LZ4TU-5 | 2026-09-02 00:02:40 | 44.20659 | 23.20391 | 73° | 40km/h | 16602m | 5.6m/s | -60.0°C | 0.0% | 0hPa | 0V | 00:00:00 | 00:00:00 | 00:00:00 | |
| LZ4TU-5 | 2026-09-02 00:02:34 | 44.20662 | 23.20317 | 95° | 49km/h | 16569m | 5.5m/s | -59.7°C | 0% | 0hPa | 0V | 00:00:00 | 00:00:00 | 00:00:00 | |
| LZ4TU-5 | 2026-09-02 00:02:23 | 44.20638 | 23.20217 | 83° | 37km/h | 16520m | 5.7m/s | -59.4°C | 0.0% | 0hPa | 0V | 00:00:00 | 00:00:00 | 00:00:00 | |
| LZ4TU-5 | 2026-09-02 00:02:17 | 44.20636 | 23.20142 | 82° | 37km/h | 16492m | 5.9m/s | -59.3°C | 0.0% | 0hPa | 0V | 00:00:00 | 00:00:00 | 00:00:00 | |
| LZ4TU-5 | 2026-09-01 23:59:35 | 44.20439 | 23.17586 | 107° | 75km/h | 15560m | 6.1m/s | -58.8°C | 1.5% | 0hPa | 0V | 00:00:00 | 00:00:00 | 00:00:00 | |
| LZ4TU-5 | 2026-09-01 23:59:30 | 44.20452 | 23.17463 | 102° | 66km/h | 15530m | 5.3m/s | -59.2°C | 1.7% | 0hPa | 0V | 00:00:00 | 00:00:00 | 00:00:00 | |
| LZ4TU-5 | 2026-09-01 23:59:23 | 44.20484 | 23.17257 | 90° | 73km/h | 15484m | 6.0m/s | -59.2°C | 1.8% | 0hPa | 0V | 00:00:00 | 00:00:00 | 00:00:00 | |
| LZ4TU-5 | 2026-09-01 23:59:17 | 44.20491 | 23.17126 | 98° | 73km/h | 15453m | 5.3m/s | -59.2°C | 1.9% | 0hPa | 0V | 00:00:00 | 00:00:00 | 00:00:00 | |
| LZ4TU-5 | 2026-09-01 23:57:50 | 44.20510 | 23.14594 | 90° | 88km/h | 14930m | 6.9m/s | -59.4°C | 3.6% | 0hPa | 0V | 00:00:00 | 00:00:00 | 00:00:00 | |
| LZ4TU-5 | 2026-09-01 23:57:45 | 44.20499 | 23.14436 | 86° | 100km/h | 14901m | 5.7m/s | -59.3°C | 3.7% | 0hPa | 0V | 00:00:00 | 00:00:00 | 00:00:00 | |
| LZ4TU-5 | 2026-09-01 23:57:36 | 44.20492 | 23.14141 | 83° | 95km/h | 14850m | 5.0m/s | -59.1°C | 4.1% | 0hPa | 0V | 00:00:00 | 00:00:00 | 00:00:00 | |
| LZ4TU-5 | 2026-09-01 23:57:31 | 44.20483 | 23.13967 | 91° | 89km/h | 14822m | 3.8m/s | -59.0°C | 4.2% | 0hPa | 0V | 00:00:00 | 00:00:00 | 00:00:00 | |
| LZ4TU-5 | 2026-09-01 23:56:09 | 44.20271 | 23.11116 | 87° | 111km/h | 14377m | 4.3m/s | -58.5°C | 8.6% | 0hPa | 0V | 00:00:00 | 00:00:00 | 00:00:00 | |
| LZ4TU-5 | 2026-09-01 23:56:04 | 44.20250 | 23.10970 | 76° | 97km/h | 14352m | 5.9m/s | -58.5°C | 0% | 0hPa | 0V | 00:00:00 | 00:00:00 | 00:00:00 | |
| LZ4TU-5 | 2026-09-01 23:55:55 | 44.20228 | 23.10666 | 81° | 108km/h | 14302m | 4.8m/s | -58.6°C | 9.6% | 0hPa | 0V | 00:00:00 | 00:00:00 | 00:00:00 | |
| LZ4TU-5 | 2026-09-01 23:55:51 | 44.20209 | 23.10523 | 78° | 99km/h | 14281m | 6.6m/s | -58.6°C | 9.9% | 0hPa | 0V | 00:00:00 | 00:00:00 | 00:00:00 | |
| LZ4TU-5 | 2026-09-01 23:54:24 | 44.19693 | 23.07278 | 80° | 117km/h | 13775m | 5.9m/s | -59.7°C | 15.7% | 0hPa | 0V | 00:00:00 | 00:00:00 | 00:00:00 | |
| LZ4TU-5 | 2026-09-01 23:54:19 | 44.19667 | 23.07095 | 84° | 95km/h | 13751m | 5.1m/s | -60.0°C | 16.0% | 0hPa | 0V | 00:00:00 | 00:00:00 | 00:00:00 | |
| LZ4TU-5 | 2026-09-01 23:54:10 | 44.19641 | 23.06767 | 80° | 130km/h | 13699m | 4.2m/s | -60.1°C | 16.2% | 0hPa | 0V | 00:00:00 | 00:00:00 | 00:00:00 | |
| LZ4TU-5 | 2026-09-01 23:54:05 | 44.19614 | 23.06560 | 88° | 106km/h | 13676m | 5.5m/s | -60.4°C | 0% | 0hPa | 0V | 00:00:00 | 00:00:00 | 00:00:00 | |
| LZ4TU-5 | 2026-09-01 23:52:40 | 44.19395 | 23.02841 | 89° | 131km/h | 13161m | 7.4m/s | -59.7°C | 16.8% | 0hPa | 0V | 00:00:00 | 00:00:00 | 00:00:00 | |
| LZ4TU-5 | 2026-09-01 23:52:35 | 44.19377 | 23.02620 | 82° | 133km/h | 13128m | 7.4m/s | -59.5°C | 16.7% | 0hPa | 0V | 00:00:00 | 00:00:00 | 00:00:00 | |
| LZ4TU-5 | 2026-09-01 23:52:26 | 44.19330 | 23.02214 | 79° | 126km/h | 13061m | 6.6m/s | -59.0°C | 16.6% | 0hPa | 0V | 00:00:00 | 00:00:00 | 00:00:00 | |
| LZ4TU-5 | 2026-09-01 23:52:21 | 44.19316 | 23.01975 | 89° | 128km/h | 13023m | 5.6m/s | -58.8°C | 16.7% | 0hPa | 0V | 00:00:00 | 00:00:00 | 00:00:00 | |
| LZ4TU-5 | 2026-09-01 23:50:55 | 44.18980 | 22.98151 | 78° | 130km/h | 12451m | 5.2m/s | -55.6°C | 16.1% | 0hPa | 0V | 00:00:00 | 00:00:00 | 00:00:00 | |
| LZ4TU-5 | 2026-09-01 23:50:51 | 44.18953 | 22.97975 | 82° | 124km/h | 12422m | 7.0m/s | -55.3°C | 16.2% | 0hPa | 0V | 00:00:00 | 00:00:00 | 00:00:00 | |
| LZ4TU-5 | 2026-09-01 23:50:40 | 44.18895 | 22.97475 | 80° | 120km/h | 12348m | 6.1m/s | -55.0°C | 16.4% | 0hPa | 0V | 00:00:00 | 00:00:00 | 00:00:00 | |
| LZ4TU-5 | 2026-09-01 23:50:35 | 44.18868 | 22.97261 | 82° | 142km/h | 12309m | 7.0m/s | -54.7°C | 16.3% | 0hPa | 0V | 00:00:00 | 00:00:00 | 00:00:00 | |
| LZ4TU-5 | 2026-09-01 23:50:30 | 44.18842 | 22.97012 | 84° | 122km/h | 12276m | 8.3m/s | -54.5°C | 16.2% | 0hPa | 0V | 00:00:00 | 00:00:00 | 00:00:00 | |
| LZ4TU-5 | 2026-09-01 23:49:00 | 44.18556 | 22.93138 | 86° | 128km/h | 11688m | 6.2m/s | -51.8°C | 17.2% | 0hPa | 0V | 00:00:00 | 00:00:00 | 00:00:00 | |
| LZ4TU-5 | 2026-09-01 23:48:46 | 44.18550 | 22.92546 | 92° | 139km/h | 11588m | 7.0m/s | -51.2°C | 16.5% | 0hPa | 0V | 00:00:00 | 00:00:00 | 00:00:00 | |
| LZ4TU-5 | 2026-09-01 23:47:14 | 44.18428 | 22.88397 | 84° | 117km/h | 10972m | 6.4m/s | -46.8°C | 14.5% | 0hPa | 0V | 00:00:00 | 00:00:00 | 00:00:00 | |
| LZ4TU-5 | 2026-09-01 23:47:01 | 44.18419 | 22.88078 | 87° | 115km/h | 10918m | 7.3m/s | -46.6°C | 14.3% | 0hPa | 0V | 00:00:00 | 00:00:00 | 00:00:00 | |
| LZ4TU-5 | 2026-09-01 23:46:57 | 44.18424 | 22.87900 | 97° | 122km/h | 10897m | 5.1m/s | -46.4°C | 14.3% | 0hPa | 0V | 00:00:00 | 00:00:00 | 00:00:00 | |
| LZ4TU-5 | 2026-09-01 23:45:31 | 44.18586 | 22.84707 | 95° | 100km/h | 10395m | 4.9m/s | -43.5°C | 15.7% | 0hPa | 0V | 00:00:00 | 00:00:00 | 00:00:00 | |
| LZ4TU-5 | 2026-09-01 23:45:26 | 44.18583 | 22.84508 | 92° | 106km/h | 10369m | 5.4m/s | -43.3°C | 0% | 0hPa | 0V | 00:00:00 | 00:00:00 | 00:00:00 | |
| LZ4TU-5 | 2026-09-01 23:45:17 | 44.18601 | 22.84180 | 83° | 100km/h | 10323m | 3.0m/s | -42.9°C | 15.2% | 0hPa | 0V | 00:00:00 | 00:00:00 | 00:00:00 | |
| LZ4TU-5 | 2026-09-01 23:45:13 | 44.18597 | 22.84046 | 101° | 89km/h | 10301m | 9.3m/s | -42.7°C | 14.9% | 0hPa | 0V | 00:00:00 | 00:00:00 | 00:00:00 | |
| LZ4TU-5 | 2026-09-01 23:43:34 | 44.18812 | 22.80660 | 89° | 89km/h | 9692m | 6.5m/s | -37.8°C | 6.1% | 0hPa | 0V | 00:00:00 | 00:00:00 | 00:00:00 | |
| LZ4TU-5 | 2026-09-01 23:43:29 | 44.18818 | 22.80524 | 99° | 66km/h | 9666m | 4.8m/s | -37.6°C | 0% | 0hPa | 0V | 00:00:00 | 00:00:00 | 00:00:00 | |
| LZ4TU-5 | 2026-09-01 23:42:05 | 44.19055 | 22.78053 | 96° | 89km/h | 9171m | 9.7m/s | -33.4°C | 4.6% | 0hPa | 0V | 00:00:00 | 00:00:00 | 00:00:00 | |
| LZ4TU-5 | 2026-09-01 23:42:02 | 44.19073 | 22.77947 | 107° | 80km/h | 9140m | 5.4m/s | -33.1°C | 4.5% | 0hPa | 0V | 00:00:00 | 00:00:00 | 00:00:00 | |
| LZ4TU-5 | 2026-09-01 23:40:36 | 44.19306 | 22.75485 | 96° | 78km/h | 8624m | 6.9m/s | -29.6°C | 3.8% | 0hPa | 0V | 00:00:00 | 00:00:00 | 00:00:00 | |
| LZ4TU-5 | 2026-09-01 23:40:31 | 44.19329 | 22.75331 | 97° | 80km/h | 8594m | 6.7m/s | -29.4°C | 3.8% | 0hPa | 0V | 00:00:00 | 00:00:00 | 00:00:00 | |
| LZ4TU-5 | 2026-09-01 23:38:58 | 44.19414 | 22.72801 | 107° | 68km/h | 8038m | 3.5m/s | -26.2°C | 6.6% | 0hPa | 0V | 00:00:00 | 00:00:00 | 00:00:00 | |
| LZ4TU-5 | 2026-09-01 23:38:53 | 44.19437 | 22.72658 | 94° | 91km/h | 8013m | 5.5m/s | -26.1°C | 8.2% | 0hPa | 0V | 00:00:00 | 00:00:00 | 00:00:00 | |
| LZ4TU-5 | 2026-09-01 23:37:31 | 44.19489 | 22.70364 | 87° | 69km/h | 7570m | 4.5m/s | -23.7°C | 23.4% | 0hPa | 0V | 00:00:00 | 00:00:00 | 00:00:00 | |
| LZ4TU-5 | 2026-09-01 23:37:26 | 44.19467 | 22.70226 | 80° | 88km/h | 7552m | 4.0m/s | -23.6°C | 23.1% | 0hPa | 0V | 00:00:00 | 00:00:00 | 00:00:00 | |
| LZ4TU-5 | 2026-09-01 23:37:21 | 44.19471 | 22.70115 | 105° | 53km/h | 7521m | 3.6m/s | -23.3°C | 22.8% | 0hPa | 0V | 00:00:00 | 00:00:00 | 00:00:00 | |
| LZ4TU-5 | 2026-09-01 23:36:01 | 44.19731 | 22.68339 | 98° | 86km/h | 7109m | 5.1m/s | -19.7°C | 35.1% | 0hPa | 0V | 00:00:00 | 00:00:00 | 00:00:00 | |
| LZ4TU-5 | 2026-09-01 23:35:56 | 44.19768 | 22.68215 | 109° | 53km/h | 7086m | 4.9m/s | -19.5°C | 34.9% | 0hPa | 0V | 00:00:00 | 00:00:00 | 00:00:00 | |
| LZ4TU-5 | 2026-09-01 23:34:32 | 44.20017 | 22.66410 | 110° | 66km/h | 6651m | 8.4m/s | -15.9°C | 28.4% | 0hPa | 0V | 00:00:00 | 00:00:00 | 00:00:00 | |
| LZ4TU-5 | 2026-09-01 23:34:28 | 44.20029 | 22.66316 | 101° | 62km/h | 6622m | 6.2m/s | -15.7°C | 29.9% | 0hPa | 0V | 00:00:00 | 00:00:00 | 00:00:00 | |
| LZ4TU-5 | 2026-09-01 23:33:14 | 44.20342 | 22.64655 | 106° | 66km/h | 6182m | 5.8m/s | -12.6°C | 4.6% | 0hPa | 0V | 00:00:00 | 00:00:00 | 00:00:00 | |
| LZ4TU-5 | 2026-09-01 23:33:09 | 44.20380 | 22.64556 | 121° | 47km/h | 6153m | 5.8m/s | -12.5°C | 4.7% | 0hPa | 0V | 00:00:00 | 00:00:00 | 00:00:00 | |
| LZ4TU-5 | 2026-09-01 23:31:55 | 44.20539 | 22.63158 | 118° | 33km/h | 5706m | 5.8m/s | -9.5°C | 6.7% | 0hPa | 0V | 00:00:00 | 00:00:00 | 00:00:00 | |
| LZ4TU-5 | 2026-09-01 23:31:49 | 44.20543 | 22.63099 | 80° | 53km/h | 5679m | 6.4m/s | -9.3°C | 6.8% | 0hPa | 0V | 00:00:00 | 00:00:00 | 00:00:00 | |
| LZ4TU-5 | 2026-09-01 23:30:34 | 44.20699 | 22.61814 | 103° | 51km/h | 5243m | 6.7m/s | -6.6°C | 9.9% | 0hPa | 0V | 00:00:00 | 00:00:00 | 00:00:00 | |
| LZ4TU-5 | 2026-09-01 23:30:29 | 44.20692 | 22.61727 | 90° | 37km/h | 5213m | 5.7m/s | -6.3°C | 0% | 0hPa | 0V | 00:00:00 | 00:00:00 | 00:00:00 | |
| LZ4TU-5 | 2026-09-01 23:28:36 | 44.20799 | 22.60005 | 97° | 51km/h | 4568m | 6.0m/s | -3.3°C | 29.0% | 0hPa | 0V | 00:00:00 | 00:00:00 | 00:00:00 | |
| LZ4TU-5 | 2026-09-01 23:28:32 | 44.20817 | 22.59932 | 123° | 55km/h | 4542m | 6.3m/s | -3.0°C | 0% | 0hPa | 0V | 00:00:00 | 00:00:00 | 00:00:00 | |
| LZ4TU-5 | 2026-09-01 23:27:19 | 44.21034 | 22.58735 | 133° | 42km/h | 4164m | 3.2m/s | -0.7°C | 13.0% | 0hPa | 0V | 00:00:00 | 00:00:00 | 00:00:00 | |
| LZ4TU-5 | 2026-09-01 23:27:14 | 44.21049 | 22.58654 | 91° | 64km/h | 4139m | 4.8m/s | -0.6°C | 12.9% | 0hPa | 0V | 00:00:00 | 00:00:00 | 00:00:00 | |
| LZ4TU-5 | 2026-09-01 23:26:05 | 44.21331 | 22.57643 | 127° | 47km/h | 3745m | 5.7m/s | 0.8°C | 40.8% | 0hPa | 0V | 00:00:00 | 00:00:00 | 00:00:00 | |
| LZ4TU-5 | 2026-09-01 23:26:00 | 44.21349 | 22.57588 | 135° | 33km/h | 3712m | 7.2m/s | 0.8°C | 46.2% | 0hPa | 0V | 00:00:00 | 00:00:00 | 00:00:00 | |
| LZ4TU-5 | 2026-09-01 23:24:58 | 44.21690 | 22.56887 | 164° | 24km/h | 3337m | 7.0m/s | 3.4°C | 38.9% | 0hPa | 0V | 00:00:00 | 00:00:00 | 00:00:00 | |
| LZ4TU-5 | 2026-09-01 23:24:53 | 44.21730 | 22.56842 | 113° | 46km/h | 3307m | 6.4m/s | 3.2°C | 46.2% | 0hPa | 0V | 00:00:00 | 00:00:00 | 00:00:00 | |
| LZ4TU-5 | 2026-09-01 23:23:39 | 44.21954 | 22.56277 | 111° | 42km/h | 2870m | 4.9m/s | 5.9°C | 74.4% | 0hPa | 0V | 00:00:00 | 00:00:00 | 00:00:00 | |
| LZ4TU-5 | 2026-09-01 23:22:32 | 44.22073 | 22.55822 | 120° | 37km/h | 2498m | 4.6m/s | 9.2°C | 62.5% | 0hPa | 0V | 00:00:00 | 00:00:00 | 00:00:00 | |
| LZ4TU-5 | 2026-09-01 23:22:27 | 44.22073 | 22.55797 | 14° | 22km/h | 2470m | 4.5m/s | 9.5°C | 0% | 0hPa | 0V | 00:00:00 | 00:00:00 | 00:00:00 | |
| LZ4TU-5 | 2026-09-01 23:21:13 | 44.22109 | 22.55344 | 78° | 24km/h | 2073m | 5.5m/s | 13.1°C | 49.5% | 0hPa | 0V | 00:00:00 | 00:00:00 | 00:00:00 | |
| LZ4TU-5 | 2026-09-01 23:21:09 | 44.22103 | 22.55317 | 97° | 11km/h | 2050m | 7.0m/s | 13.4°C | 49.0% | 0hPa | 0V | 00:00:00 | 00:00:00 | 00:00:00 | |
| LZ4TU-5 | 2026-09-01 23:19:57 | 44.22253 | 22.54966 | 117° | 11km/h | 1652m | 6.9m/s | 15.9°C | 0% | 0hPa | 0V | 00:00:00 | 00:00:00 | 00:00:00 | |
| LZ4TU-5 | 2026-09-01 23:18:49 | 44.22403 | 22.54629 | 164° | 20km/h | 1288m | 3.7m/s | 18.1°C | 43.5% | 0hPa | 0V | 00:00:00 | 00:00:00 | 00:00:00 | |
| LZ4TU-5 | 2026-09-01 23:18:45 | 44.22422 | 22.54612 | 122° | 22km/h | 1265m | 4.8m/s | 18.4°C | 42.9% | 0hPa | 0V | 00:00:00 | 00:00:00 | 00:00:00 |